Time;durP1;ratioP1;P1;durP2;ratioP2;P2;SDS_P1;SDS_P2;PMS_P1;PMS_P2;Temp;Humidity;BMP_temperature;BMP_pressure;BME280_temperature;BME280_humidity;BME280_pressure;Samples;Min_cycle;Max_cycle;Signal;HPM_P1;HPM_P2
2021/08/04 00:00:51;;;;;;;4.53;3.20;;;589.50;1612.80;;;;;;4860952;29;20033;-61
2021/08/04 00:03:16;;;;;;;6.15;4.35;;;589.50;1612.80;;;;;;4861039;29;20040;-62
2021/08/04 00:05:44;;;;;;;6.50;4.18;;;589.50;1587.20;;;;;;4861205;29;20465;-69
2021/08/04 00:08:09;;;;;;;4.10;3.70;;;589.50;1612.80;;;;;;4861262;29;20033;-69
2021/08/04 00:10:35;;;;;;;5.32;3.92;;;589.50;1612.80;;;;;;4861358;29;20372;-69
2021/08/04 00:13:01;;;;;;;4.53;3.95;;;589.50;1612.80;;;;;;4860791;29;20045;-68
2021/08/04 00:15:27;;;;;;;4.47;3.97;;;589.50;1612.80;;;;;;4862580;29;20476;-62
2021/08/04 00:17:53;;;;;;;4.60;4.00;;;589.50;1612.80;;;;;;4864461;29;20036;-68
2021/08/04 00:20:19;;;;;;;5.20;4.07;;;589.50;1612.80;;;;;;4864762;29;20345;-62
2021/08/04 00:22:45;;;;;;;5.63;4.22;;;589.50;1587.20;;;;;;4864353;29;20081;-69
2021/08/04 00:25:11;;;;;;;5.32;4.13;;;589.60;1587.20;;;;;;4863992;29;20033;-64
2021/08/04 00:27:37;;;;;;;4.65;3.63;;;589.60;1587.20;;;;;;4864545;29;20034;-67
2021/08/04 00:30:04;;;;;;;5.78;4.47;;;589.60;1587.20;;;;;;4864352;29;20052;-67
2021/08/04 00:32:29;;;;;;;8.10;4.18;;;589.60;1587.20;;;;;;4864261;29;20113;-69
2021/08/04 00:34:55;;;;;;;4.45;3.55;;;589.50;1587.20;;;;;;4864437;29;20460;-62
2021/08/04 00:37:21;;;;;;;4.00;3.60;;;589.50;1561.60;;;;;;4864153;29;20052;-69
2021/08/04 00:39:47;;;;;;;5.35;3.45;;;589.60;1561.60;;;;;;4864347;29;20030;-69
2021/08/04 00:42:15;;;;;;;3.75;3.35;;;589.60;1561.60;;;;;;4847576;29;20528;-69
2021/08/04 00:44:41;;;;;;;5.13;2.88;;;589.50;1561.60;;;;;;4863936;29;20029;-62
2021/08/04 00:47:07;;;;;;;4.93;3.38;;;589.50;1561.60;;;;;;4863991;29;20066;-70
2021/08/04 00:49:33;;;;;;;4.82;3.60;;;589.50;1561.60;;;;;;4864492;29;20026;-65
2021/08/04 00:51:59;;;;;;;4.22;3.03;;;589.50;1587.20;;;;;;4863791;29;20072;-68
2021/08/04 00:54:25;;;;;;;4.45;3.10;;;589.50;1587.20;;;;;;4864046;29;20025;-71
2021/08/04 00:56:51;;;;;;;3.42;3.13;;;589.50;1561.60;;;;;;4864133;29;20041;-62
2021/08/04 00:59:17;;;;;;;6.50;2.97;;;589.50;1587.20;;;;;;4863921;29;20030;-62
2021/08/04 01:01:53;;;;;;;4.75;3.30;;;589.50;1561.60;;;;;;4863555;29;20038;-62
2021/08/04 01:04:23;;;;;;;4.45;3.00;;;589.40;1587.20;;;;;;4863516;29;20034;-69
2021/08/04 01:07:13;;;;;;;4.60;2.72;;;589.40;1561.60;;;;;;4863252;29;20021;-67
2021/08/04 01:09:50;;;;;;;3.78;2.60;;;589.40;1587.20;;;;;;4863776;29;20033;-64
2021/08/04 01:12:26;;;;;;;7.00;3.03;;;589.40;1587.20;;;;;;4863517;29;20041;-63
2021/08/04 01:15:00;;;;;;;4.90;2.63;;;589.40;1561.60;;;;;;4863433;29;20558;-63
2021/08/04 01:17:25;;;;;;;7.35;3.10;;;589.40;1561.60;;;;;;4863507;29;20035;-69
2021/08/04 01:19:58;;;;;;;4.05;2.95;;;589.40;1561.60;;;;;;4863486;29;20045;-62
2021/08/04 01:22:41;;;;;;;6.05;2.63;;;589.30;1561.60;;;;;;4863584;29;20036;-65
2021/08/04 01:25:18;;;;;;;5.18;2.97;;;589.40;1561.60;;;;;;4863348;29;20518;-67
2021/08/04 01:28:18;;;;;;;4.13;2.80;;;589.40;1561.60;;;;;;4863370;29;20395;-62
2021/08/04 01:30:45;;;;;;;3.75;3.20;;;589.40;1561.60;;;;;;4847895;29;20068;-62
2021/08/04 01:33:14;;;;;;;3.40;2.88;;;589.30;1587.20;;;;;;4863154;29;20049;-62
2021/08/04 01:35:41;;;;;;;3.80;2.40;;;589.30;1561.60;;;;;;4863028;29;20030;-66
2021/08/04 01:38:08;;;;;;;5.05;3.00;;;589.30;1561.60;;;;;;4863238;29;20476;-62
2021/08/04 01:40:34;;;;;;;6.20;3.22;;;589.30;1561.60;;;;;;4862905;29;20032;-66
2021/08/04 01:43:01;;;;;;;4.60;3.00;;;589.20;1561.60;;;;;;4863019;29;20040;-62
2021/08/04 01:45:27;;;;;;;4.85;3.28;;;589.30;1561.60;;;;;;4862870;29;20056;-63
2021/08/04 01:47:53;;;;;;;3.25;2.70;;;589.30;1587.20;;;;;;4862911;29;20089;-62
2021/08/04 01:50:19;;;;;;;5.38;3.08;;;589.30;1587.20;;;;;;4862845;29;20081;-62
2021/08/04 01:52:45;;;;;;;3.40;2.95;;;589.30;1587.20;;;;;;4862830;29;20365;-62
2021/08/04 01:55:12;;;;;;;4.05;3.28;;;589.20;1587.20;;;;;;4862755;29;20161;-62
2021/08/04 01:57:38;;;;;;;3.97;3.05;;;589.20;1587.20;;;;;;4845815;29;20168;-70
2021/08/04 02:00:05;;;;;;;4.57;2.92;;;589.20;1587.20;;;;;;4862705;29;20563;-68
2021/08/04 02:02:30;;;;;;;4.38;2.95;;;589.20;1612.80;;;;;;4862749;29;20041;-68
2021/08/04 02:04:56;;;;;;;5.78;2.85;;;589.20;1612.80;;;;;;4862791;29;20384;-69
2021/08/04 02:07:36;;;;;;;5.13;3.03;;;589.20;1638.40;;;;;;4862732;29;20064;-68
2021/08/04 02:10:06;;;;;;;4.90;2.85;;;589.20;1638.40;;;;;;4862542;29;20024;-62
2021/08/04 02:12:41;;;;;;;4.95;2.90;;;589.10;1638.40;;;;;;4862508;29;20034;-62
2021/08/04 02:15:12;;;;;;;3.95;2.90;;;589.10;1638.40;;;;;;4862611;29;20037;-62
2021/08/04 02:17:43;;;;;;;3.17;2.88;;;589.10;1638.40;;;;;;4862449;29;20033;-62
2021/08/04 02:20:35;;;;;;;4.13;3.40;;;589.10;1638.40;;;;;;4862405;29;20025;-62
2021/08/04 02:23:12;;;;;;;5.47;3.20;;;589.10;1638.40;;;;;;4862473;29;20033;-62
2021/08/04 02:25:45;;;;;;;3.78;3.20;;;589.20;1612.80;;;;;;4862407;29;20161;-67
2021/08/04 02:28:23;;;;;;;4.35;2.85;;;589.20;1612.80;;;;;;4861997;29;20033;-62
2021/08/04 02:30:51;;;;;;;6.13;3.00;;;589.20;1612.80;;;;;;4862362;29;20040;-67
2021/08/04 02:33:18;;;;;;;9.02;3.70;;;589.20;1612.80;;;;;;4861912;29;20597;-62
2021/08/04 02:35:45;;;;;;;4.28;3.15;;;589.20;1638.40;;;;;;4862265;29;20057;-62
2021/08/04 02:38:11;;;;;;;3.92;3.47;;;589.20;1638.40;;;;;;4861585;29;20141;-69
2021/08/04 02:40:37;;;;;;;3.97;3.40;;;589.20;1638.40;;;;;;4862247;29;20026;-67
2021/08/04 02:43:04;;;;;;;4.22;3.22;;;589.20;1638.40;;;;;;4861837;29;20037;-67
2021/08/04 02:45:30;;;;;;;6.45;3.40;;;589.20;1638.40;;;;;;4861356;29;20066;-62
2021/08/04 02:47:56;;;;;;;5.00;3.53;;;589.20;1638.40;;;;;;4861931;29;20085;-62
2021/08/04 02:50:23;;;;;;;4.47;3.20;;;589.20;1638.40;;;;;;4861944;29;20338;-62
2021/08/04 02:52:49;;;;;;;3.95;3.15;;;589.30;1638.40;;;;;;4861979;29;20077;-62
2021/08/04 02:55:16;;;;;;;4.40;3.38;;;589.30;1612.80;;;;;;4861699;29;20491;-62
2021/08/04 02:57:42;;;;;;;4.93;3.13;;;589.30;1638.40;;;;;;4861808;29;20033;-62
2021/08/04 03:00:08;;;;;;;4.43;3.85;;;589.30;1612.80;;;;;;4861569;29;20503;-64
2021/08/04 03:02:34;;;;;;;4.60;3.20;;;589.30;1612.80;;;;;;4861794;29;20033;-65
2021/08/04 03:05:00;;;;;;;5.00;3.10;;;589.30;1612.80;;;;;;4861743;29;20093;-67
2021/08/04 03:07:25;;;;;;;6.22;3.40;;;589.30;1638.40;;;;;;4861674;29;20472;-62
2021/08/04 03:09:51;;;;;;;4.97;3.50;;;589.30;1638.40;;;;;;4861006;29;20178;-69
2021/08/04 03:12:17;;;;;;;6.70;3.25;;;589.30;1638.40;;;;;;4847756;29;20037;-63
2021/08/04 03:14:43;;;;;;;3.67;3.28;;;589.30;1638.40;;;;;;4845854;29;20022;-65
2021/08/04 03:17:09;;;;;;;6.53;3.55;;;589.30;1638.40;;;;;;4845651;29;20086;-66
2021/08/04 03:19:38;;;;;;;5.07;3.10;;;589.30;1638.40;;;;;;4847786;29;20029;-63
2021/08/04 03:22:03;;;;;;;4.32;3.60;;;589.30;1664.00;;;;;;4845679;29;20050;-64
2021/08/04 03:24:29;;;;;;;6.75;3.67;;;589.30;1664.00;;;;;;4845768;29;20053;-65
2021/08/04 03:26:55;;;;;;;6.55;3.45;;;589.30;1664.00;;;;;;4848438;29;20053;-69
2021/08/04 03:29:21;;;;;;;10.18;4.32;;;589.30;1664.00;;;;;;4850604;29;20510;-61
2021/08/04 03:31:47;;;;;;;5.97;3.97;;;589.30;1664.00;;;;;;4841345;29;20117;-67
2021/08/04 03:34:12;;;;;;;5.63;3.80;;;589.30;1689.60;;;;;;4842639;29;20042;-61
2021/08/04 03:36:38;;;;;;;6.15;4.22;;;589.30;1715.20;;;;;;4844490;29;20081;-67
2021/08/04 03:39:04;;;;;;;6.93;4.30;;;589.20;1740.80;;;;;;4861341;29;20468;-69
2021/08/04 03:41:29;;;;;;;7.53;4.35;;;589.20;1740.80;;;;;;4861168;29;20457;-61
2021/08/04 03:43:55;;;;;;;7.32;4.32;;;589.20;1740.80;;;;;;4860640;29;20033;-62
2021/08/04 03:46:22;;;;;;;9.15;4.30;;;589.20;1766.40;;;;;;4857378;29;20053;-62
2021/08/04 03:48:47;;;;;;;6.85;4.75;;;589.10;1766.40;;;;;;4844804;29;20056;-66
2021/08/04 03:51:13;;;;;;;8.15;4.03;;;589.00;1792.00;;;;;;4851035;29;20769;-63
2021/08/04 03:53:39;;;;;;;7.60;4.28;;;589.00;1817.60;;;;;;4854727;29;20064;-67
2021/08/04 03:56:05;;;;;;;6.57;4.40;;;588.90;1817.60;;;;;;4852649;29;20036;-69
2021/08/04 03:58:30;;;;;;;5.90;4.47;;;588.90;1843.20;;;;;;4855846;29;20033;-65
2021/08/04 04:00:56;;;;;;;4.70;4.15;;;588.90;1843.20;;;;;;4855849;29;20477;-67
2021/08/04 04:03:22;;;;;;;5.35;3.97;;;588.80;1843.20;;;;;;4847119;29;20030;-64
2021/08/04 04:05:47;;;;;;;6.60;4.80;;;588.80;1843.20;;;;;;4849264;29;20040;-61
2021/08/04 04:08:13;;;;;;;5.75;4.22;;;588.80;1843.20;;;;;;4854292;29;20029;-68
2021/08/04 04:10:39;;;;;;;5.88;3.70;;;588.80;1843.20;;;;;;4855740;29;20141;-69
2021/08/04 04:13:05;;;;;;;4.75;3.95;;;588.80;1843.20;;;;;;4851273;29;20037;-68
2021/08/04 04:15:30;;;;;;;7.03;4.05;;;588.80;1843.20;;;;;;4847929;29;20433;-70
2021/08/04 04:17:56;;;;;;;6.93;4.40;;;564.10;1843.20;;;;;;4849466;29;20058;-61
2021/08/04 04:20:22;;;;;;;6.35;4.45;;;564.10;1843.20;;;;;;4844649;29;20033;-68
2021/08/04 04:22:47;;;;;;;4.93;4.40;;;564.10;1843.20;;;;;;4852513;29;20065;-69
2021/08/04 04:25:15;;;;;;;8.60;4.60;;;564.10;1868.80;;;;;;4846439;29;20172;-69
2021/08/04 04:27:42;;;;;;;6.38;4.88;;;564.00;1868.80;;;;;;4845501;29;20541;-69
2021/08/04 04:30:09;;;;;;;5.35;4.60;;;564.10;1868.80;;;;;;4845837;29;20066;-62
2021/08/04 04:32:35;;;;;;;7.32;5.18;;;564.00;1868.80;;;;;;4845298;29;20042;-63
2021/08/04 04:35:01;;;;;;;8.93;4.72;;;564.00;1868.80;;;;;;4845542;29;20049;-61
2021/08/04 04:37:26;;;;;;;8.82;5.22;;;564.00;1868.80;;;;;;4845804;29;20385;-69
2021/08/04 04:39:52;;;;;;;7.38;4.60;;;564.10;1868.80;;;;;;4845973;29;20033;-62
2021/08/04 04:42:18;;;;;;;8.75;5.32;;;564.10;1868.80;;;;;;4846286;29;20051;-63
2021/08/04 04:44:43;;;;;;;7.95;4.95;;;588.80;1843.20;;;;;;4845610;29;20030;-62
2021/08/04 04:47:09;;;;;;;6.90;4.55;;;588.80;1843.20;;;;;;4845643;29;20049;-63
2021/08/04 04:49:35;;;;;;;5.60;4.32;;;588.80;1868.80;;;;;;4845253;29;20055;-67
2021/08/04 04:52:00;;;;;;;7.15;4.30;;;588.80;1868.80;;;;;;4845491;29;20037;-63
2021/08/04 04:54:26;;;;;;;8.02;4.72;;;588.80;1868.80;;;;;;4845439;29;20476;-62
2021/08/04 04:56:52;;;;;;;5.85;5.07;;;588.90;1868.80;;;;;;4845527;29;20071;-62
2021/08/04 04:59:17;;;;;;;7.32;5.20;;;588.90;1868.80;;;;;;4845197;29;20362;-63
2021/08/04 05:01:43;;;;;;;7.70;5.20;;;588.90;1868.80;;;;;;4844857;29;20105;-61
2021/08/04 05:04:09;;;;;;;5.63;4.78;;;588.90;1868.80;;;;;;4845520;29;20037;-70
2021/08/04 05:06:35;;;;;;;8.88;5.75;;;589.00;1868.80;;;;;;4845140;29;20037;-61
2021/08/04 05:09:02;;;;;;;10.98;6.03;;;589.00;1868.80;;;;;;4845175;29;20038;-70
2021/08/04 05:11:28;;;;;;;8.25;5.80;;;589.10;1868.80;;;;;;4844674;29;20025;-69
2021/08/04 05:13:54;;;;;;;6.43;5.38;;;589.10;1868.80;;;;;;4848470;29;20044;-69
2021/08/04 05:16:19;;;;;;;6.18;4.68;;;589.10;1843.20;;;;;;4850113;29;20372;-69
2021/08/04 05:18:45;;;;;;;6.90;5.13;;;589.10;1843.20;;;;;;4847682;29;20034;-66
2021/08/04 05:21:11;;;;;;;8.60;4.88;;;589.20;1817.60;;;;;;4845443;29;20041;-66
2021/08/04 05:23:37;;;;;;;7.55;4.63;;;589.20;1817.60;;;;;;4844828;29;20033;-61
2021/08/04 05:26:03;;;;;;;6.43;4.20;;;589.30;1817.60;;;;;;4844795;29;20084;-72
2021/08/04 05:28:29;;;;;;;8.57;5.28;;;589.30;1817.60;;;;;;4844903;29;20410;-67
2021/08/04 05:30:55;;;;;;;15.07;5.07;;;589.40;1817.60;;;;;;4844024;29;20132;-70
2021/08/04 05:33:21;;;;;;;6.90;4.88;;;589.40;1817.60;;;;;;4849230;29;20085;-68
2021/08/04 05:35:46;;;;;;;8.05;5.57;;;589.50;1817.60;;;;;;4851157;29;20433;-61
2021/08/04 05:38:12;;;;;;;7.90;5.20;;;589.50;1817.60;;;;;;4849836;29;20038;-61
2021/08/04 05:40:38;;;;;;;10.38;5.13;;;589.60;1817.60;;;;;;4850116;29;20029;-70
2021/08/04 05:43:04;;;;;;;11.25;5.47;;;589.70;1792.00;;;;;;4848774;29;20106;-64
2021/08/04 05:45:30;;;;;;;8.63;4.63;;;614.40;1766.40;;;;;;4845954;29;20400;-61
2021/08/04 05:47:56;;;;;;;8.95;5.10;;;614.50;1766.40;;;;;;4848465;29;20038;-70
2021/08/04 05:50:22;;;;;;;5.18;4.68;;;614.60;1740.80;;;;;;4848502;29;20486;-67
2021/08/04 05:52:50;;;;;;;7.03;4.80;;;614.70;1740.80;;;;;;4848729;29;20158;-61
2021/08/04 05:55:16;;;;;;;6.70;4.57;;;614.70;1740.80;;;;;;4844465;29;20034;-61
2021/08/04 05:57:43;;;;;;;6.97;4.72;;;614.70;1715.20;;;;;;4844474;29;20040;-66
2021/08/04 06:00:09;;;;;;;5.70;4.18;;;614.70;1715.20;;;;;;4844550;29;20022;-75
2021/08/04 06:02:35;;;;;;;5.25;4.22;;;614.80;1715.20;;;;;;4827168;29;20038;-62
2021/08/04 06:05:01;;;;;;;13.55;5.05;;;614.80;1715.20;;;;;;4844090;29;20041;-65
2021/08/04 06:07:27;;;;;;;6.30;4.70;;;614.80;1715.20;;;;;;4844329;29;20038;-69
2021/08/04 06:09:53;;;;;;;5.90;4.85;;;614.80;1715.20;;;;;;4844318;29;20041;-70
2021/08/04 06:12:18;;;;;;;9.50;4.50;;;614.90;1715.20;;;;;;4843625;29;20077;-67
2021/08/04 06:14:44;;;;;;;7.45;4.53;;;614.90;1715.20;;;;;;4844142;29;20029;-65
2021/08/04 06:17:10;;;;;;;5.97;4.18;;;614.90;1715.20;;;;;;4844111;29;20037;-69
2021/08/04 06:19:35;;;;;;;11.57;5.30;;;614.90;1715.20;;;;;;4844086;29;20026;-70
2021/08/04 06:22:02;;;;;;;9.43;3.83;;;615.00;1689.60;;;;;;4844049;29;20030;-68
2021/08/04 06:24:28;;;;;;;5.30;4.10;;;615.00;1689.60;;;;;;4843800;29;20032;-69
2021/08/04 06:26:54;;;;;;;4.72;3.58;;;615.10;1664.00;;;;;;4843979;29;20100;-66
2021/08/04 06:29:21;;;;;;;4.95;3.53;;;615.20;1664.00;;;;;;4844023;29;20104;-69
2021/08/04 06:31:47;;;;;;;4.97;3.55;;;615.20;1638.40;;;;;;4843471;29;20381;-68
2021/08/04 06:34:13;;;;;;;4.38;3.47;;;640.00;1612.80;;;;;;4843690;29;20045;-69
2021/08/04 06:36:39;;;;;;;8.10;3.40;;;640.10;1612.80;;;;;;4843724;29;20034;-69
2021/08/04 06:39:04;;;;;;;9.07;3.70;;;640.20;1612.80;;;;;;4826691;29;20114;-70
2021/08/04 06:41:30;;;;;;;3.75;3.17;;;640.50;1612.80;;;;;;4843747;29;20105;-68
2021/08/04 06:43:56;;;;;;;4.18;3.10;;;640.60;1587.20;;;;;;4843680;29;20469;-70
2021/08/04 06:46:21;;;;;;;5.10;3.78;;;640.80;1536.00;;;;;;4829047;29;20137;-68
2021/08/04 06:48:47;;;;;;;5.47;3.17;;;665.70;1536.00;;;;;;4825466;29;20034;-70
2021/08/04 06:51:16;;;;;;;4.53;3.03;;;665.90;1510.40;;;;;;4824776;29;20030;-68
2021/08/04 06:53:42;;;;;;;4.25;2.92;;;666.30;1484.80;;;;;;4825668;29;20038;-70
2021/08/04 06:56:08;;;;;;;5.93;2.78;;;666.50;1433.60;;;;;;4825329;29;20071;-70
2021/08/04 06:58:34;;;;;;;6.38;3.60;;;691.40;1408.00;;;;;;4825337;29;20034;-70
2021/08/04 07:01:00;;;;;;;6.50;3.20;;;691.80;1382.40;;;;;;4825759;29;20034;-71
2021/08/04 07:03:25;;;;;;;9.57;3.20;;;692.10;1356.80;;;;;;4825098;29;20450;-70
2021/08/04 07:05:52;;;;;;;4.18;3.33;;;716.90;1356.80;;;;;;4824773;29;20456;-70
2021/08/04 07:08:19;;;;;;;8.80;3.00;;;717.00;1356.80;;;;;;4825314;29;20079;-70
2021/08/04 07:10:46;;;;;;;4.10;3.35;;;717.00;1331.20;;;;;;4825342;29;20026;-70
2021/08/04 07:13:11;;;;;;;8.85;3.13;;;716.90;1356.80;;;;;;4807874;29;20054;-69
2021/08/04 07:15:37;;;;;;;6.97;3.05;;;716.90;1356.80;;;;;;4824924;29;20404;-70
2021/08/04 07:18:06;;;;;;;8.18;3.55;;;717.10;1356.80;;;;;;4824893;29;20397;-70
2021/08/04 07:20:33;;;;;;;7.07;4.15;;;717.30;1356.80;;;;;;4825055;29;20027;-70
2021/08/04 07:22:58;;;;;;;4.88;3.22;;;717.60;1331.20;;;;;;4825146;29;20568;-71
2021/08/04 07:25:24;;;;;;;6.43;4.18;;;742.40;1356.80;;;;;;4824793;29;20061;-70
2021/08/04 07:27:50;;;;;;;5.50;3.67;;;742.50;1331.20;;;;;;4824947;29;20058;-71
2021/08/04 07:30:16;;;;;;;3.25;2.72;;;742.70;1305.60;;;;;;4824764;29;20038;-70
2021/08/04 07:32:42;;;;;;;4.50;2.90;;;743.00;1254.40;;;;;;4824523;29;20397;-70
2021/08/04 07:35:08;;;;;;;3.70;2.90;;;743.20;1254.40;;;;;;4824960;29;20553;-71
2021/08/04 07:37:35;;;;;;;4.10;3.03;;;743.30;1228.80;;;;;;4824597;29;20044;-70
2021/08/04 07:40:02;;;;;;;5.82;2.80;;;743.30;1228.80;;;;;;4824806;29;20155;-70
2021/08/04 07:42:27;;;;;;;4.80;2.83;;;768.10;1203.20;;;;;;4824847;29;20037;-71
2021/08/04 07:44:55;;;;;;;5.45;3.55;;;768.30;1203.20;;;;;;4825042;29;20390;-71
2021/08/04 07:47:21;;;;;;;4.45;3.03;;;768.60;1203.20;;;;;;4824548;29;20517;-70
2021/08/04 07:49:47;;;;;;;6.15;2.67;;;793.60;1203.20;;;;;;4824354;29;20042;-70
2021/08/04 07:52:12;;;;;;;4.88;3.40;;;793.70;1203.20;;;;;;4824647;29;20042;-70
2021/08/04 07:54:39;;;;;;;6.80;3.10;;;794.00;1203.20;;;;;;4824601;29;20026;-70
2021/08/04 07:57:05;;;;;;;3.70;2.53;;;794.10;1177.60;;;;;;4824646;29;20062;-70
2021/08/04 07:59:31;;;;;;;3.65;2.55;;;794.30;1126.40;;;;;;4824362;29;20380;-69
2021/08/04 08:01:57;;;;;;;3.17;2.65;;;794.40;1100.80;;;;;;4824586;29;20026;-70
2021/08/04 08:04:22;;;;;;;4.88;2.67;;;819.30;1100.80;;;;;;4824532;29;20062;-70
2021/08/04 08:06:49;;;;;;;4.28;3.00;;;819.40;1100.80;;;;;;4824475;29;20087;-69
2021/08/04 08:09:21;;;;;;;5.97;3.20;;;819.60;1100.80;;;;;;4824582;29;20095;-72
2021/08/04 08:11:58;;;;;;;3.67;2.70;;;819.70;1049.60;;;;;;4824230;29;20057;-69
2021/08/04 08:14:25;;;;;;;3.05;2.75;;;819.90;1049.60;;;;;;4824385;29;20473;-68
2021/08/04 08:16:51;;;;;;;4.43;3.00;;;820.10;998.40;;;;;;4824183;29;20199;-67
2021/08/04 08:19:17;;;;;;;3.75;2.50;;;844.80;1049.60;;;;;;4824262;29;20502;-67
2021/08/04 08:21:43;;;;;;;3.83;2.78;;;844.90;1024.00;;;;;;4824544;29;20034;-66
2021/08/04 08:24:08;;;;;;;5.07;2.50;;;845.00;998.40;;;;;;4824381;29;20067;-68
2021/08/04 08:26:35;;;;;;;2.42;2.03;;;845.30;972.80;;;;;;4824334;29;20034;-67
2021/08/04 08:29:02;;;;;;;4.32;2.50;;;845.40;947.20;;;;;;4824289;29;20038;-66
2021/08/04 08:31:29;;;;;;;3.85;2.50;;;845.50;921.60;;;;;;4824187;29;20476;-67
2021/08/04 08:33:55;;;;;;;3.53;2.20;;;845.70;921.60;;;;;;4823976;29;20107;-72
2021/08/04 08:36:20;;;;;;;2.30;2.10;;;870.40;921.60;;;;;;4825427;29;20026;-72
2021/08/04 08:38:46;;;;;;;3.40;2.53;;;870.50;921.60;;;;;;4811134;29;20034;-70
2021/08/04 08:41:12;;;;;;;7.57;2.38;;;870.60;896.00;;;;;;4827172;29;20377;-71
2021/08/04 08:43:37;;;;;;;3.95;2.50;;;870.70;896.00;;;;;;4827341;29;20038;-66
2021/08/04 08:46:04;;;;;;;4.20;2.03;;;870.80;896.00;;;;;;4826950;29;20050;-70
2021/08/04 08:48:30;;;;;;;2.55;2.17;;;870.90;870.40;;;;;;4826988;29;20038;-70
2021/08/04 08:50:56;;;;;;;3.40;2.17;;;871.00;870.40;;;;;;4827094;29;20106;-72
2021/08/04 08:53:22;;;;;;;3.88;2.17;;;871.10;870.40;;;;;;4826949;29;20500;-71
2021/08/04 08:55:49;;;;;;;3.88;1.90;;;871.20;844.80;;;;;;4827175;29;20026;-72
2021/08/04 08:58:15;;;;;;;4.03;1.80;;;871.20;819.20;;;;;;4827183;29;20053;-69
2021/08/04 09:00:40;;;;;;;2.92;1.70;;;871.20;819.20;;;;;;4826734;29;20034;-69
2021/08/04 09:03:06;;;;;;;17.80;2.55;;;871.30;793.60;;;;;;4827157;29;20109;-71
2021/08/04 09:05:53;;;;;;;7.22;2.03;;;896.00;768.00;;;;;;4826509;29;20031;-72
2021/08/04 09:08:38;;;;;;;7.10;2.33;;;896.10;768.00;;;;;;4826782;29;20045;-73
2021/08/04 09:11:18;;;;;;;4.38;2.17;;;896.20;793.60;;;;;;4826719;29;20511;-71
2021/08/04 09:13:46;;;;;;;3.03;1.73;;;896.50;793.60;;;;;;4826937;29;20073;-68
2021/08/04 09:16:15;;;;;;;14.30;3.45;;;896.60;768.00;;;;;;4825806;29;20087;-70
2021/08/04 09:18:52;;;;;;;8.43;1.90;;;896.70;768.00;;;;;;4830028;29;20112;-72
2021/08/04 09:21:20;;;;;;;4.50;1.98;;;896.80;716.80;;;;;;4834600;29;20378;-73
2021/08/04 09:23:51;;;;;;;2.88;2.13;;;896.90;742.40;;;;;;4833255;29;20083;-71
2021/08/04 09:26:22;;;;;;;4.72;1.80;;;921.60;768.00;;;;;;4830725;29;20030;-66
2021/08/04 09:29:01;;;;;;;12.85;3.33;;;921.60;742.40;;;;;;4826566;29;20041;-67
2021/08/04 09:31:44;;;;;;;8.80;2.30;;;921.60;768.00;;;;;;4832830;29;20026;-72
2021/08/04 09:34:28;;;;;;;7.80;1.88;;;921.70;768.00;;;;;;4834411;29;20042;-71
2021/08/04 09:37:12;;;;;;;2.88;2.00;;;921.90;742.40;;;;;;4832228;29;20040;-67
2021/08/04 09:39:39;;;;;;;6.40;1.95;;;922.00;768.00;;;;;;4833228;29;20508;-76
2021/08/04 09:42:06;;;;;;;3.40;2.00;;;922.10;768.00;;;;;;4836036;29;20133;-67
2021/08/04 09:44:32;;;;;;;4.15;2.05;;;922.10;768.00;;;;;;4835553;29;20038;-64
2021/08/04 09:47:12;;;;;;;4.03;2.70;;;922.10;742.40;;;;;;4830019;29;20095;-68
2021/08/04 09:49:41;;;;;;;3.22;2.25;;;922.20;716.80;;;;;;4843877;29;20430;-68
2021/08/04 09:52:09;;;;;;;2.65;2.03;;;922.30;742.40;;;;;;4832965;29;20472;-67
2021/08/04 09:54:38;;;;;;;3.83;2.40;;;922.30;716.80;;;;;;4833131;29;20054;-67
2021/08/04 09:57:04;;;;;;;4.03;2.05;;;922.40;716.80;;;;;;4833657;29;20026;-71
2021/08/04 09:59:30;;;;;;;4.72;2.15;;;922.50;716.80;;;;;;4834704;29;20047;-68
2021/08/04 10:01:58;;;;;;;3.22;2.30;;;947.20;716.80;;;;;;4833225;29;20046;-67
2021/08/04 10:04:24;;;;;;;7.07;2.38;;;947.20;716.80;;;;;;4833585;29;20603;-65
2021/08/04 10:07:02;;;;;;;4.30;2.10;;;947.30;716.80;;;;;;4835381;29;20105;-67
2021/08/04 10:09:27;;;;;;;8.23;2.40;;;947.40;716.80;;;;;;4832470;29;20456;-63
2021/08/04 10:11:54;;;;;;;26.27;4.15;;;947.40;691.20;;;;;;4834494;29;20050;-67
2021/08/04 10:14:21;;;;;;;10.80;2.90;;;947.40;716.80;;;;;;4833550;29;20054;-67
2021/08/04 10:16:50;;;;;;;3.78;2.75;;;947.50;691.20;;;;;;4832711;29;20480;-68
2021/08/04 10:19:17;;;;;;;11.52;2.42;;;947.60;691.20;;;;;;4834335;29;20094;-66
2021/08/04 10:21:48;;;;;;;16.40;3.90;;;947.70;691.20;;;;;;4832331;29;20022;-69
2021/08/04 10:24:15;;;;;;;50.75;5.80;;;947.70;691.20;;;;;;4818657;29;20030;-75
2021/08/04 10:26:41;;;;;;;36.55;4.45;;;947.50;768.00;;;;;;4833489;29;20242;-70
2021/08/04 10:29:08;;;;;;;19.00;3.75;;;947.40;768.00;;;;;;4834041;29;20422;-73
2021/08/04 10:31:35;;;;;;;7.35;2.70;;;947.50;793.60;;;;;;4832541;29;20026;-72
2021/08/04 10:34:03;;;;;;;5.72;2.70;;;947.50;793.60;;;;;;4833101;29;20042;-70
2021/08/04 10:36:38;;;;;;;8.55;2.88;;;947.50;793.60;;;;;;4840122;29;20369;-72
2021/08/04 10:39:12;;;;;;;5.32;2.80;;;947.50;793.60;;;;;;4843729;29;20115;-70
2021/08/04 10:41:41;;;;;;;5.75;2.95;;;947.50;793.60;;;;;;4843443;29;20029;-71
2021/08/04 10:44:21;;;;;;;5.07;2.85;;;947.50;768.00;;;;;;4843311;29;20555;-73
2021/08/04 10:46:47;;;;;;;5.53;3.03;;;947.40;793.60;;;;;;4850918;29;20114;-71
2021/08/04 10:49:18;;;;;;;6.03;3.13;;;947.40;768.00;;;;;;4850281;29;20403;-68
2021/08/04 10:51:56;;;;;;;7.00;3.08;;;947.50;819.20;;;;;;4850976;29;20027;-71
2021/08/04 10:54:23;;;;;;;6.82;3.55;;;947.40;819.20;;;;;;4849542;29;20033;-69
2021/08/04 10:56:52;;;;;;;5.45;2.78;;;947.40;793.60;;;;;;4850157;29;20120;-72
2021/08/04 10:59:25;;;;;;;3.53;3.08;;;947.40;819.20;;;;;;4850611;29;20032;-70
2021/08/04 11:01:54;;;;;;;4.85;2.97;;;947.50;819.20;;;;;;4850731;29;20034;-71
2021/08/04 11:04:28;;;;;;;25.73;3.90;;;947.40;793.60;;;;;;4852675;29;20033;-70
2021/08/04 11:07:09;;;;;;;10.27;3.15;;;947.40;793.60;;;;;;4850064;29;20473;-69
2021/08/04 11:09:38;;;;;;;8.88;3.55;;;947.40;819.20;;;;;;4850225;29;20080;-70
2021/08/04 11:12:09;;;;;;;9.43;3.70;;;947.50;819.20;;;;;;4851356;29;20112;-72
2021/08/04 11:14:41;;;;;;;5.43;3.30;;;947.70;844.80;;;;;;4851862;29;20476;-70
2021/08/04 11:17:09;;;;;;;6.60;3.42;;;947.70;793.60;;;;;;4851124;29;20033;-68
2021/08/04 11:20:01;;;;;;;4.38;3.13;;;947.70;793.60;;;;;;4850080;29;20021;-69
2021/08/04 11:22:40;;;;;;;4.70;2.70;;;947.70;768.00;;;;;;4850988;29;20034;-70
2021/08/04 11:25:10;;;;;;;7.47;3.05;;;947.70;793.60;;;;;;4850849;29;20752;-66
2021/08/04 11:27:58;;;;;;;3.60;2.78;;;947.50;768.00;;;;;;4849789;29;20030;-64
2021/08/04 11:30:37;;;;;;;4.38;3.08;;;947.50;768.00;;;;;;4783085;30;20038;-67
2021/08/04 11:33:18;;;;;;;7.63;2.90;;;947.50;793.60;;;;;;4784633;30;20062;-63
2021/08/04 11:36:06;;;;;;;3.83;2.40;;;947.50;768.00;;;;;;4785003;30;20044;-64
2021/08/04 11:38:42;;;;;;;5.95;2.88;;;947.70;793.60;;;;;;4779734;30;20035;-64
2021/08/04 11:41:22;;;;;;;3.75;2.80;;;947.80;768.00;;;;;;4784688;30;20043;-67
2021/08/04 11:43:50;;;;;;;5.85;3.33;;;947.70;768.00;;;;;;4785076;30;20038;-63
2021/08/04 11:46:28;;;;;;;3.22;2.78;;;947.80;768.00;;;;;;4771514;30;20055;-63
2021/08/04 11:48:53;;;;;;;6.60;2.95;;;948.00;768.00;;;;;;4767045;30;20067;-64
2021/08/04 11:51:47;;;;;;;3.90;2.90;;;948.00;768.00;;;;;;4766982;30;20107;-64
2021/08/04 11:54:14;;;;;;;4.75;3.15;;;948.10;742.40;;;;;;4767765;30;20109;-67
2021/08/04 11:56:45;;;;;;;2.90;2.58;;;948.10;716.80;;;;;;4768349;30;20530;-64
2021/08/04 11:59:12;;;;;;;3.25;2.67;;;948.10;691.20;;;;;;4768330;30;20039;-63
2021/08/04 12:01:38;;;;;;;3.13;2.17;;;948.00;691.20;;;;;;4768259;30;20039;-64
2021/08/04 12:04:10;;;;;;;3.65;2.45;;;948.00;691.20;;;;;;4768896;30;20039;-63
2021/08/04 12:06:37;;;;;;;6.05;2.40;;;947.90;691.20;;;;;;4775900;29;20091;-64
2021/08/04 12:09:23;;;;;;;5.07;2.70;;;947.90;691.20;;;;;;4824599;29;20054;-64
2021/08/04 12:11:49;;;;;;;3.00;2.05;;;948.00;691.20;;;;;;4830346;29;20057;-66
2021/08/04 12:14:18;;;;;;;24.70;3.88;;;947.90;716.80;;;;;;4838213;29;20098;-67
2021/08/04 12:16:46;;;;;;;6.38;2.60;;;947.80;716.80;;;;;;4836478;29;20026;-62
2021/08/04 12:19:30;;;;;;;4.95;2.65;;;947.50;691.20;;;;;;4835511;29;20035;-63
2021/08/04 12:21:56;;;;;;;5.18;2.15;;;947.40;691.20;;;;;;4818924;29;20043;-65
2021/08/04 12:24:23;;;;;;;3.08;2.50;;;947.50;691.20;;;;;;4834640;29;20485;-64
2021/08/04 12:26:49;;;;;;;4.47;2.05;;;947.50;691.20;;;;;;4835792;29;20123;-64